N287FN KIND-KORL
Flight info
| Callsign | N287FN |
|---|---|
| Flight time | 1h 59m |
| Altitude | 41000 |
| Route | DAWNN1 DAWNN MJKAL JAFAR3 |
| Aircraft | CL60/M-SBDE1E2E3FGHIJ1J4J5J7M3RWXYZ/LB1V1D1 |
Departure
| Time | 2026-05-04 23:49 |
|---|---|
| Airport | Indianapolis International Airport (KIND) |
Arrival
| Time | 2026-05-05 01:49 |
|---|---|
| Airport | Orlando Executive Airport (KORL) |
| Time | Latitude | Longitude | Altitude | Speed | Heading |
|---|---|---|---|---|---|
| 2026-05-04 23:00 | 39.72564 | -86.27190 | 786 ft | 0 kts | 269° |
| 2026-05-04 23:41 | 39.72564 | -86.27197 | 786 ft | 5 kts | 262° |
| 2026-05-04 23:42 | 39.72511 | -86.27219 | 786 ft | 10 kts | 181° |
| 2026-05-04 23:42 | 39.72434 | -86.27219 | 786 ft | 10 kts | 181° |
| 2026-05-04 23:42 | 39.72423 | -86.27256 | 787 ft | 6 kts | 322° |
| 2026-05-04 23:42 | 39.72469 | -86.27312 | 788 ft | 12 kts | 314° |
| 2026-05-04 23:43 | 39.72533 | -86.27398 | 789 ft | 13 kts | 312° |
| 2026-05-04 23:43 | 39.72602 | -86.27489 | 791 ft | 14 kts | 314° |
| 2026-05-04 23:43 | 39.72674 | -86.27582 | 791 ft | 15 kts | 316° |
| 2026-05-04 23:43 | 39.72753 | -86.27686 | 793 ft | 16 kts | 314° |
| 2026-05-04 23:44 | 39.72835 | -86.27795 | 794 ft | 17 kts | 315° |
| 2026-05-04 23:44 | 39.72922 | -86.27909 | 794 ft | 18 kts | 314° |
| 2026-05-04 23:44 | 39.73018 | -86.28037 | 794 ft | 20 kts | 314° |
| 2026-05-04 23:44 | 39.73122 | -86.28172 | 795 ft | 21 kts | 315° |
| 2026-05-04 23:45 | 39.73230 | -86.28316 | 794 ft | 22 kts | 315° |
| 2026-05-04 23:45 | 39.73347 | -86.28471 | 792 ft | 25 kts | 314° |
| 2026-05-04 23:45 | 39.73468 | -86.28631 | 791 ft | 23 kts | 314° |
| 2026-05-04 23:45 | 39.73509 | -86.28739 | 789 ft | 13 kts | 239° |
| 2026-05-04 23:46 | 39.73439 | -86.28833 | 789 ft | 15 kts | 226° |
| 2026-05-04 23:46 | 39.73361 | -86.28938 | 787 ft | 17 kts | 225° |
| 2026-05-04 23:46 | 39.73267 | -86.29057 | 786 ft | 19 kts | 224° |
| 2026-05-04 23:46 | 39.73169 | -86.29181 | 785 ft | 20 kts | 224° |
| 2026-05-04 23:47 | 39.73067 | -86.29312 | 782 ft | 21 kts | 225° |
| 2026-05-04 23:47 | 39.72984 | -86.29418 | 779 ft | 10 kts | 224° |
| 2026-05-04 23:47 | 39.72955 | -86.29453 | 779 ft | 4 kts | 220° |
| 2026-05-04 23:47 | 39.72925 | -86.29446 | 779 ft | 5 kts | 128° |
| 2026-05-04 23:48 | 39.72900 | -86.29411 | 780 ft | 5 kts | 135° |
| 2026-05-04 23:48 | 39.72877 | -86.29381 | 781 ft | 4 kts | 134° |
| 2026-05-04 23:48 | 39.72855 | -86.29351 | 781 ft | 4 kts | 134° |
| 2026-05-04 23:48 | 39.72829 | -86.29327 | 782 ft | 5 kts | 165° |
| 2026-05-04 23:49 | 39.72766 | -86.29372 | 781 ft | 16 kts | 224° |
| 2026-05-04 23:49 | 39.72509 | -86.29700 | 775 ft | 97 kts | 224° |
| 2026-05-04 23:49 | 39.71861 | -86.30524 | 1063 ft | 150 kts | 222° |
| 2026-05-04 23:49 | 39.71080 | -86.31520 | 1907 ft | 168 kts | 222° |
| 2026-05-04 23:50 | 39.70310 | -86.32589 | 3146 ft | 168 kts | 227° |
| 2026-05-04 23:50 | 39.69566 | -86.33669 | 4300 ft | 169 kts | 226° |
| 2026-05-04 23:50 | 39.68716 | -86.34779 | 4857 ft | 178 kts | 226° |
| 2026-05-04 23:50 | 39.67832 | -86.35899 | 4978 ft | 176 kts | 225° |
| 2026-05-04 23:51 | 39.66969 | -86.36987 | 4978 ft | 173 kts | 225° |
| 2026-05-04 23:51 | 39.65985 | -86.37904 | 4964 ft | 177 kts | 204° |
| 2026-05-04 23:51 | 39.64709 | -86.37930 | 4985 ft | 201 kts | 179° |
| 2026-05-04 23:51 | 39.63286 | -86.37608 | 5981 ft | 215 kts | 179° |
| 2026-05-04 23:52 | 39.61757 | -86.37279 | 6841 ft | 239 kts | 179° |
| 2026-05-04 23:52 | 39.60057 | -86.36923 | 7675 ft | 263 kts | 178° |
| 2026-05-04 23:52 | 39.58202 | -86.36520 | 8744 ft | 277 kts | 178° |
| 2026-05-04 23:52 | 39.56288 | -86.36103 | 9848 ft | 287 kts | 178° |
| 2026-05-04 23:53 | 39.54328 | -86.35675 | 10985 ft | 296 kts | 178° |
| 2026-05-04 23:53 | 39.52289 | -86.35229 | 12209 ft | 302 kts | 177° |
| 2026-05-04 23:53 | 39.50232 | -86.34780 | 13314 ft | 309 kts | 177° |
| 2026-05-04 23:53 | 39.48087 | -86.34312 | 14431 ft | 315 kts | 176° |
| 2026-05-04 23:54 | 39.45928 | -86.33842 | 15529 ft | 320 kts | 176° |
| 2026-05-04 23:54 | 39.43739 | -86.33366 | 16532 ft | 325 kts | 176° |
| 2026-05-04 23:54 | 39.41515 | -86.32883 | 17503 ft | 331 kts | 176° |
| 2026-05-04 23:54 | 39.39218 | -86.32385 | 18441 ft | 337 kts | 176° |
| 2026-05-04 23:55 | 39.36912 | -86.31885 | 19364 ft | 341 kts | 176° |
| 2026-05-04 23:55 | 39.34537 | -86.31472 | 20274 ft | 343 kts | 180° |
| 2026-05-04 23:55 | 39.29776 | -86.30939 | 22012 ft | 350 kts | 181° |
| 2026-05-04 23:56 | 39.27328 | -86.30667 | 22835 ft | 354 kts | 181° |
| 2026-05-04 23:56 | 39.24898 | -86.30398 | 23629 ft | 358 kts | 181° |
| 2026-05-04 23:56 | 39.22382 | -86.30118 | 24454 ft | 361 kts | 181° |
| 2026-05-04 23:56 | 39.19873 | -86.29839 | 25228 ft | 365 kts | 181° |
| 2026-05-04 23:57 | 39.17353 | -86.29559 | 25917 ft | 370 kts | 182° |
| 2026-05-04 23:57 | 39.14777 | -86.29274 | 26596 ft | 374 kts | 182° |
| 2026-05-04 23:57 | 39.12161 | -86.28984 | 27233 ft | 379 kts | 182° |
| 2026-05-04 23:57 | 39.09525 | -86.28692 | 27868 ft | 382 kts | 182° |
| 2026-05-04 23:58 | 39.07803 | -86.28501 | 28239 ft | 385 kts | 182° |
| 2026-05-04 23:58 | 39.05147 | -86.28205 | 28865 ft | 388 kts | 182° |
| 2026-05-04 23:58 | 39.02444 | -86.27907 | 29410 ft | 392 kts | 182° |
| 2026-05-04 23:58 | 38.99725 | -86.27607 | 29910 ft | 397 kts | 182° |
| 2026-05-04 23:59 | 38.96958 | -86.27302 | 30378 ft | 402 kts | 182° |
| 2026-05-04 23:59 | 38.94161 | -86.26993 | 30816 ft | 406 kts | 182° |
| 2026-05-04 23:59 | 38.91318 | -86.26679 | 31269 ft | 410 kts | 182° |
| 2026-05-04 23:59 | 38.88493 | -86.26366 | 31713 ft | 413 kts | 182° |
| 2026-05-05 00:00 | 38.85589 | -86.26046 | 32121 ft | 416 kts | 181° |
| 2026-05-05 00:00 | 38.84623 | -86.25939 | 32253 ft | 417 kts | 181° |
| 2026-05-05 00:00 | 38.79784 | -86.25406 | 32882 ft | 422 kts | 181° |
| 2026-05-05 00:00 | 38.76877 | -86.25085 | 33264 ft | 424 kts | 181° |
| 2026-05-05 00:01 | 38.73944 | -86.24762 | 33618 ft | 427 kts | 180° |
| 2026-05-05 00:01 | 38.70953 | -86.24432 | 34024 ft | 427 kts | 180° |
| 2026-05-05 00:01 | 38.68019 | -86.24109 | 34439 ft | 427 kts | 180° |
| 2026-05-05 00:01 | 38.65063 | -86.23783 | 34848 ft | 426 kts | 180° |
| 2026-05-05 00:02 | 38.62095 | -86.23457 | 35210 ft | 426 kts | 180° |
| 2026-05-05 00:02 | 38.59140 | -86.23125 | 35588 ft | 425 kts | 179° |
| 2026-05-05 00:02 | 38.56252 | -86.22500 | 35949 ft | 429 kts | 171° |
| 2026-05-05 00:02 | 38.53362 | -86.21339 | 36297 ft | 432 kts | 165° |
| 2026-05-05 00:03 | 38.50564 | -86.20085 | 36703 ft | 431 kts | 165° |
| 2026-05-05 00:03 | 38.47723 | -86.18819 | 37091 ft | 431 kts | 166° |
| 2026-05-05 00:03 | 38.44900 | -86.17562 | 37448 ft | 431 kts | 166° |
| 2026-05-05 00:03 | 38.42091 | -86.16312 | 37832 ft | 430 kts | 166° |
| 2026-05-05 00:04 | 38.39291 | -86.15068 | 38189 ft | 430 kts | 166° |
| 2026-05-05 00:04 | 38.36459 | -86.13811 | 38494 ft | 430 kts | 166° |
| 2026-05-05 00:04 | 38.33633 | -86.12556 | 38826 ft | 429 kts | 166° |
| 2026-05-05 00:04 | 38.30833 | -86.11315 | 39131 ft | 429 kts | 166° |
| 2026-05-05 00:05 | 38.28022 | -86.10071 | 39353 ft | 430 kts | 166° |
| 2026-05-05 00:05 | 38.25188 | -86.08817 | 39566 ft | 430 kts | 166° |
| 2026-05-05 00:05 | 38.22342 | -86.07558 | 39809 ft | 430 kts | 166° |
| 2026-05-05 00:05 | 38.19545 | -86.06323 | 40016 ft | 429 kts | 166° |
| 2026-05-05 00:06 | 38.16737 | -86.05084 | 40125 ft | 431 kts | 166° |
| 2026-05-05 00:06 | 38.13885 | -86.03826 | 40267 ft | 431 kts | 166° |
| 2026-05-05 00:06 | 38.11050 | -86.02576 | 40391 ft | 432 kts | 166° |
| 2026-05-05 00:06 | 38.08248 | -86.01343 | 40520 ft | 433 kts | 166° |
| 2026-05-05 00:07 | 38.05384 | -86.00083 | 40645 ft | 433 kts | 166° |
| 2026-05-05 00:07 | 38.02549 | -85.98837 | 40778 ft | 433 kts | 166° |
| 2026-05-05 00:07 | 37.99692 | -85.97582 | 40824 ft | 436 kts | 166° |
| 2026-05-05 00:08 | 37.93942 | -85.95062 | 40843 ft | 443 kts | 166° |
| 2026-05-05 00:08 | 37.88086 | -85.92499 | 40835 ft | 449 kts | 166° |
| 2026-05-05 00:09 | 37.82119 | -85.89891 | 40846 ft | 455 kts | 166° |
| 2026-05-05 00:09 | 37.76134 | -85.87279 | 40870 ft | 460 kts | 166° |
| 2026-05-05 00:10 | 37.70048 | -85.84628 | 40881 ft | 465 kts | 166° |
| 2026-05-05 00:10 | 37.63888 | -85.81949 | 40869 ft | 470 kts | 166° |
| 2026-05-05 00:11 | 37.57692 | -85.79258 | 40859 ft | 474 kts | 166° |
| 2026-05-05 00:11 | 37.51461 | -85.76557 | 40869 ft | 478 kts | 166° |
| 2026-05-05 00:12 | 37.45168 | -85.73834 | 40866 ft | 481 kts | 166° |
| 2026-05-05 00:12 | 37.38806 | -85.71086 | 40865 ft | 483 kts | 165° |
| 2026-05-05 00:13 | 37.32469 | -85.68353 | 40878 ft | 486 kts | 166° |
| 2026-05-05 00:13 | 37.26074 | -85.65601 | 40875 ft | 488 kts | 166° |
| 2026-05-05 00:14 | 37.19610 | -85.62824 | 40882 ft | 491 kts | 166° |
| 2026-05-05 00:14 | 37.13141 | -85.60050 | 40872 ft | 494 kts | 166° |
| 2026-05-05 00:15 | 37.06647 | -85.57272 | 40897 ft | 497 kts | 165° |
| 2026-05-05 00:15 | 37.00030 | -85.54445 | 40900 ft | 501 kts | 165° |
| 2026-05-05 00:16 | 36.93433 | -85.51632 | 40892 ft | 506 kts | 166° |
| 2026-05-05 00:16 | 36.86722 | -85.48776 | 40902 ft | 510 kts | 165° |
| 2026-05-05 00:17 | 36.80051 | -85.45940 | 40908 ft | 511 kts | 166° |
| 2026-05-05 00:17 | 36.73283 | -85.43070 | 40908 ft | 512 kts | 166° |
| 2026-05-05 00:18 | 36.66529 | -85.40209 | 40927 ft | 511 kts | 166° |
| 2026-05-05 00:18 | 36.59795 | -85.37364 | 40939 ft | 512 kts | 166° |
| 2026-05-05 00:19 | 36.53083 | -85.34533 | 40950 ft | 512 kts | 166° |
| 2026-05-05 00:19 | 36.46311 | -85.31682 | 40938 ft | 512 kts | 166° |
| 2026-05-05 00:20 | 36.39596 | -85.28860 | 40942 ft | 512 kts | 166° |
| 2026-05-05 00:20 | 36.32846 | -85.26028 | 40960 ft | 512 kts | 166° |
| 2026-05-05 00:21 | 36.26093 | -85.23202 | 40954 ft | 513 kts | 166° |
| 2026-05-05 00:21 | 36.19317 | -85.20369 | 40963 ft | 514 kts | 167° |
| 2026-05-05 00:22 | 36.12559 | -85.17551 | 40968 ft | 514 kts | 166° |
| 2026-05-05 00:22 | 36.05784 | -85.14730 | 40991 ft | 514 kts | 166° |
| 2026-05-05 00:23 | 35.99021 | -85.11919 | 41023 ft | 514 kts | 167° |
| 2026-05-05 00:23 | 35.92268 | -85.09118 | 41011 ft | 515 kts | 166° |
| 2026-05-05 00:24 | 35.85451 | -85.06294 | 40987 ft | 515 kts | 167° |
| 2026-05-05 00:24 | 35.78696 | -85.03503 | 40980 ft | 516 kts | 167° |
| 2026-05-05 00:25 | 35.71885 | -85.00692 | 40977 ft | 516 kts | 167° |
| 2026-05-05 00:25 | 35.65076 | -84.97887 | 40985 ft | 516 kts | 167° |
| 2026-05-05 00:26 | 35.58306 | -84.95104 | 40980 ft | 517 kts | 167° |
| 2026-05-05 00:26 | 35.51458 | -84.92293 | 40985 ft | 517 kts | 167° |
| 2026-05-05 00:27 | 35.44638 | -84.89500 | 40980 ft | 517 kts | 167° |
| 2026-05-05 00:27 | 35.37849 | -84.86723 | 40976 ft | 517 kts | 167° |
| 2026-05-05 00:28 | 35.31001 | -84.83928 | 40987 ft | 518 kts | 167° |
| 2026-05-05 00:28 | 35.24167 | -84.81143 | 41002 ft | 518 kts | 167° |
| 2026-05-05 00:29 | 35.17352 | -84.78371 | 40989 ft | 519 kts | 167° |
| 2026-05-05 00:29 | 35.10521 | -84.75598 | 40987 ft | 520 kts | 167° |
| 2026-05-05 00:30 | 35.03652 | -84.72813 | 40987 ft | 519 kts | 167° |
| 2026-05-05 00:30 | 34.96956 | -84.70104 | 41003 ft | 519 kts | 167° |
| 2026-05-05 00:31 | 34.90093 | -84.67333 | 41008 ft | 520 kts | 167° |
| 2026-05-05 00:31 | 34.83220 | -84.64562 | 41014 ft | 520 kts | 167° |
| 2026-05-05 00:32 | 34.76323 | -84.61786 | 41009 ft | 521 kts | 167° |
| 2026-05-05 00:32 | 34.69426 | -84.59015 | 41010 ft | 521 kts | 167° |
| 2026-05-05 00:33 | 34.62550 | -84.56258 | 41018 ft | 522 kts | 167° |
| 2026-05-05 00:33 | 34.55696 | -84.53513 | 41010 ft | 522 kts | 167° |
| 2026-05-05 00:34 | 34.48764 | -84.50744 | 41008 ft | 523 kts | 167° |
| 2026-05-05 00:34 | 34.41878 | -84.47997 | 41023 ft | 524 kts | 167° |
| 2026-05-05 00:35 | 34.34951 | -84.45238 | 41027 ft | 524 kts | 167° |
| 2026-05-05 00:35 | 34.28015 | -84.42481 | 41024 ft | 525 kts | 167° |
| 2026-05-05 00:36 | 34.21065 | -84.39722 | 41034 ft | 525 kts | 167° |
| 2026-05-05 00:36 | 34.14158 | -84.36986 | 41034 ft | 525 kts | 167° |
| 2026-05-05 00:37 | 34.07180 | -84.34226 | 41029 ft | 525 kts | 168° |
| 2026-05-05 00:37 | 34.00276 | -84.31500 | 41037 ft | 524 kts | 168° |
| 2026-05-05 00:38 | 33.93346 | -84.28769 | 41030 ft | 525 kts | 168° |
| 2026-05-05 00:38 | 33.86423 | -84.26045 | 41033 ft | 524 kts | 168° |
| 2026-05-05 00:39 | 33.79448 | -84.23305 | 41035 ft | 525 kts | 168° |
| 2026-05-05 00:39 | 33.72517 | -84.20589 | 41036 ft | 527 kts | 168° |
| 2026-05-05 00:40 | 33.65540 | -84.17857 | 41039 ft | 529 kts | 168° |
| 2026-05-05 00:40 | 33.58534 | -84.15120 | 41040 ft | 529 kts | 168° |
| 2026-05-05 00:41 | 33.51553 | -84.12396 | 41028 ft | 529 kts | 168° |
| 2026-05-05 00:41 | 33.44552 | -84.09669 | 41032 ft | 529 kts | 168° |
| 2026-05-05 00:42 | 33.37522 | -84.06937 | 41022 ft | 531 kts | 168° |
| 2026-05-05 00:42 | 33.30503 | -84.04214 | 41021 ft | 533 kts | 168° |
| 2026-05-05 00:43 | 33.23413 | -84.01467 | 41026 ft | 535 kts | 168° |
| 2026-05-05 00:43 | 33.16325 | -83.98726 | 41024 ft | 537 kts | 168° |
| 2026-05-05 00:44 | 33.09201 | -83.95974 | 41035 ft | 537 kts | 168° |
| 2026-05-05 00:44 | 33.02110 | -83.93240 | 41024 ft | 537 kts | 168° |
| 2026-05-05 00:45 | 32.94989 | -83.90500 | 41025 ft | 538 kts | 168° |
| 2026-05-05 00:45 | 32.87878 | -83.87768 | 41027 ft | 538 kts | 168° |
| 2026-05-05 00:46 | 32.80772 | -83.85042 | 41054 ft | 538 kts | 168° |
| 2026-05-05 00:46 | 32.73611 | -83.82299 | 41035 ft | 538 kts | 168° |
| 2026-05-05 00:47 | 32.66495 | -83.79578 | 41065 ft | 538 kts | 168° |
| 2026-05-05 00:47 | 32.59406 | -83.76872 | 41058 ft | 537 kts | 168° |
| 2026-05-05 00:48 | 32.52271 | -83.74155 | 41020 ft | 539 kts | 169° |
| 2026-05-05 00:48 | 32.45151 | -83.71446 | 41047 ft | 539 kts | 168° |
| 2026-05-05 00:49 | 32.37981 | -83.68722 | 41051 ft | 538 kts | 169° |
| 2026-05-05 00:49 | 32.30872 | -83.66028 | 41015 ft | 538 kts | 169° |
| 2026-05-05 00:50 | 32.23745 | -83.63331 | 41026 ft | 538 kts | 169° |
| 2026-05-05 00:50 | 32.16580 | -83.60623 | 41049 ft | 539 kts | 169° |
| 2026-05-05 00:51 | 32.09460 | -83.57936 | 41064 ft | 539 kts | 169° |
| 2026-05-05 00:51 | 32.02336 | -83.55254 | 41023 ft | 540 kts | 169° |
| 2026-05-05 00:52 | 31.95151 | -83.52550 | 41038 ft | 538 kts | 169° |
| 2026-05-05 00:52 | 31.87972 | -83.49856 | 41030 ft | 538 kts | 169° |
| 2026-05-05 00:53 | 31.80840 | -83.47182 | 41037 ft | 539 kts | 169° |
| 2026-05-05 00:53 | 31.73737 | -83.44524 | 41044 ft | 539 kts | 168° |
| 2026-05-05 00:54 | 31.66687 | -83.41882 | 41050 ft | 517 kts | 168° |
| 2026-05-05 00:54 | 31.59923 | -83.39352 | 41039 ft | 501 kts | 169° |
| 2026-05-05 00:55 | 31.53342 | -83.36901 | 41045 ft | 496 kts | 169° |
| 2026-05-05 00:55 | 31.46784 | -83.34465 | 41052 ft | 494 kts | 170° |
| 2026-05-05 00:56 | 31.40228 | -83.32034 | 41032 ft | 493 kts | 170° |
| 2026-05-05 00:56 | 31.33692 | -83.29610 | 41034 ft | 491 kts | 169° |
| 2026-05-05 00:57 | 31.27199 | -83.27206 | 41035 ft | 489 kts | 170° |
| 2026-05-05 00:57 | 31.20722 | -83.24812 | 41032 ft | 487 kts | 169° |
| 2026-05-05 00:58 | 31.14281 | -83.22436 | 41042 ft | 487 kts | 170° |
| 2026-05-05 00:58 | 31.07784 | -83.20042 | 41037 ft | 487 kts | 169° |
| 2026-05-05 00:59 | 31.01319 | -83.17662 | 41042 ft | 487 kts | 169° |
| 2026-05-05 00:59 | 30.94878 | -83.15295 | 41037 ft | 487 kts | 170° |
| 2026-05-05 01:00 | 30.88416 | -83.12923 | 41040 ft | 486 kts | 170° |
| 2026-05-05 01:00 | 30.81985 | -83.10564 | 41039 ft | 485 kts | 170° |
| 2026-05-05 01:01 | 30.75503 | -83.08192 | 41036 ft | 485 kts | 170° |
| 2026-05-05 01:01 | 30.69057 | -83.05835 | 41042 ft | 485 kts | 170° |
| 2026-05-05 01:02 | 30.62654 | -83.03496 | 41030 ft | 485 kts | 170° |
| 2026-05-05 01:02 | 30.56158 | -83.01113 | 41038 ft | 485 kts | 168° |
| 2026-05-05 01:03 | 30.49973 | -82.97903 | 41033 ft | 494 kts | 156° |
| 2026-05-05 01:03 | 30.47048 | -82.95702 | 40910 ft | 497 kts | 148° |
| 2026-05-05 01:03 | 30.44383 | -82.93192 | 40644 ft | 503 kts | 141° |
| 2026-05-05 01:03 | 30.41897 | -82.90266 | 40332 ft | 509 kts | 134° |
| 2026-05-05 01:04 | 30.39714 | -82.87028 | 40056 ft | 513 kts | 127° |
| 2026-05-05 01:04 | 30.35675 | -82.80263 | 39599 ft | 514 kts | 127° |
| 2026-05-05 01:04 | 30.33645 | -82.76869 | 39459 ft | 513 kts | 126° |
| 2026-05-05 01:05 | 30.31611 | -82.73470 | 39286 ft | 513 kts | 127° |
| 2026-05-05 01:05 | 30.29593 | -82.70100 | 39124 ft | 512 kts | 126° |
| 2026-05-05 01:05 | 30.27580 | -82.66742 | 39011 ft | 511 kts | 127° |
| 2026-05-05 01:05 | 30.25557 | -82.63368 | 38890 ft | 510 kts | 127° |
| 2026-05-05 01:06 | 30.23517 | -82.59972 | 38700 ft | 511 kts | 127° |
| 2026-05-05 01:06 | 30.21517 | -82.56644 | 38586 ft | 510 kts | 127° |
| 2026-05-05 01:06 | 30.19493 | -82.53279 | 38483 ft | 509 kts | 127° |
| 2026-05-05 01:06 | 30.17385 | -82.49966 | 38331 ft | 508 kts | 131° |
| 2026-05-05 01:07 | 30.15023 | -82.46948 | 38204 ft | 504 kts | 139° |
| 2026-05-05 01:07 | 30.12404 | -82.44260 | 38077 ft | 499 kts | 146° |
| 2026-05-05 01:07 | 30.09598 | -82.41949 | 37874 ft | 496 kts | 153° |
| 2026-05-05 01:07 | 30.06609 | -82.39994 | 37258 ft | 494 kts | 159° |
| 2026-05-05 01:08 | 30.03464 | -82.38442 | 36588 ft | 487 kts | 167° |
| 2026-05-05 01:08 | 30.00249 | -82.37318 | 35946 ft | 479 kts | 173° |
| 2026-05-05 01:08 | 29.97040 | -82.36427 | 35309 ft | 476 kts | 174° |
| 2026-05-05 01:08 | 29.93834 | -82.35541 | 34690 ft | 475 kts | 174° |
| 2026-05-05 01:09 | 29.90609 | -82.34650 | 34067 ft | 473 kts | 174° |
| 2026-05-05 01:09 | 29.87399 | -82.33764 | 33458 ft | 471 kts | 174° |
| 2026-05-05 01:09 | 29.84216 | -82.32885 | 32862 ft | 468 kts | 174° |
| 2026-05-05 01:09 | 29.81060 | -82.32014 | 32251 ft | 466 kts | 174° |
| 2026-05-05 01:10 | 29.77912 | -82.31148 | 31640 ft | 463 kts | 175° |
| 2026-05-05 01:10 | 29.74773 | -82.30347 | 31026 ft | 459 kts | 176° |
| 2026-05-05 01:10 | 29.71656 | -82.29580 | 30444 ft | 455 kts | 176° |
| 2026-05-05 01:10 | 29.68608 | -82.28829 | 29853 ft | 451 kts | 176° |
| 2026-05-05 01:11 | 29.65519 | -82.28069 | 29249 ft | 447 kts | 176° |
| 2026-05-05 01:11 | 29.62498 | -82.27326 | 28658 ft | 443 kts | 175° |
| 2026-05-05 01:11 | 29.59493 | -82.26587 | 28070 ft | 439 kts | 175° |
| 2026-05-05 01:11 | 29.56530 | -82.25859 | 27483 ft | 435 kts | 175° |
| 2026-05-05 01:12 | 29.53585 | -82.25136 | 26913 ft | 431 kts | 175° |
| 2026-05-05 01:12 | 29.50651 | -82.24416 | 26337 ft | 427 kts | 175° |
| 2026-05-05 01:12 | 29.47764 | -82.23707 | 25768 ft | 423 kts | 174° |
| 2026-05-05 01:12 | 29.44911 | -82.23007 | 25212 ft | 419 kts | 174° |
| 2026-05-05 01:13 | 29.42090 | -82.22316 | 24671 ft | 414 kts | 174° |
| 2026-05-05 01:13 | 29.39284 | -82.21629 | 24109 ft | 410 kts | 174° |
| 2026-05-05 01:13 | 29.36510 | -82.20949 | 23573 ft | 406 kts | 174° |
| 2026-05-05 01:13 | 29.33781 | -82.20281 | 23037 ft | 401 kts | 174° |
| 2026-05-05 01:14 | 29.31044 | -82.19611 | 22511 ft | 396 kts | 173° |
| 2026-05-05 01:14 | 29.28403 | -82.18814 | 21994 ft | 395 kts | 165° |
| 2026-05-05 01:14 | 29.25879 | -82.17633 | 21457 ft | 387 kts | 162° |
| 2026-05-05 01:14 | 29.23443 | -82.16461 | 20960 ft | 374 kts | 162° |
| 2026-05-05 01:15 | 29.21053 | -82.15318 | 20522 ft | 363 kts | 162° |
| 2026-05-05 01:15 | 29.18755 | -82.14221 | 20012 ft | 362 kts | 162° |
| 2026-05-05 01:15 | 29.16430 | -82.13114 | 19527 ft | 359 kts | 162° |
| 2026-05-05 01:15 | 29.14123 | -82.12015 | 19049 ft | 356 kts | 162° |
| 2026-05-05 01:16 | 29.11865 | -82.10941 | 18578 ft | 352 kts | 161° |
| 2026-05-05 01:16 | 29.09601 | -82.09864 | 18117 ft | 349 kts | 161° |
| 2026-05-05 01:16 | 29.07361 | -82.08801 | 17417 ft | 353 kts | 161° |
| 2026-05-05 01:16 | 29.05109 | -82.07732 | 17122 ft | 344 kts | 161° |
| 2026-05-05 01:17 | 29.02934 | -82.06698 | 16646 ft | 342 kts | 160° |
| 2026-05-05 01:17 | 29.00716 | -82.05646 | 16186 ft | 339 kts | 160° |
| 2026-05-05 01:17 | 28.98650 | -82.04448 | 15747 ft | 338 kts | 146° |
| 2026-05-05 01:17 | 28.96905 | -82.02620 | 15295 ft | 337 kts | 135° |
| 2026-05-05 01:18 | 28.95305 | -82.00723 | 14844 ft | 334 kts | 135° |
| 2026-05-05 01:18 | 28.93695 | -81.98830 | 14406 ft | 331 kts | 135° |
| 2026-05-05 01:18 | 28.92095 | -81.96950 | 13968 ft | 328 kts | 135° |
| 2026-05-05 01:18 | 28.90514 | -81.95081 | 13574 ft | 323 kts | 134° |
| 2026-05-05 01:19 | 28.89035 | -81.93191 | 13227 ft | 317 kts | 130° |
| 2026-05-05 01:19 | 28.87692 | -81.91124 | 12745 ft | 342 kts | 123° |
| 2026-05-05 01:19 | 28.86411 | -81.88637 | 12268 ft | 374 kts | 122° |
| 2026-05-05 01:19 | 28.84734 | -81.86490 | 11781 ft | 361 kts | 142° |
| 2026-05-05 01:20 | 28.82765 | -81.84818 | 11254 ft | 344 kts | 144° |
| 2026-05-05 01:20 | 28.80903 | -81.83240 | 11029 ft | 320 kts | 144° |
| 2026-05-05 01:20 | 28.79177 | -81.81747 | 10986 ft | 305 kts | 144° |
| 2026-05-05 01:20 | 28.77532 | -81.80197 | 10970 ft | 306 kts | 144° |
| 2026-05-05 01:21 | 28.75632 | -81.79151 | 10978 ft | 301 kts | 168° |
| 2026-05-05 01:21 | 28.73570 | -81.78706 | 10959 ft | 298 kts | 173° |
| 2026-05-05 01:21 | 28.71581 | -81.78339 | 10622 ft | 288 kts | 173° |
| 2026-05-05 01:21 | 28.69596 | -81.77962 | 9922 ft | 291 kts | 173° |
| 2026-05-05 01:22 | 28.67597 | -81.77580 | 9301 ft | 290 kts | 173° |
| 2026-05-05 01:22 | 28.65639 | -81.77211 | 8696 ft | 287 kts | 173° |
| 2026-05-05 01:22 | 28.63661 | -81.76852 | 8083 ft | 285 kts | 173° |
| 2026-05-05 01:22 | 28.61708 | -81.76511 | 7467 ft | 282 kts | 173° |
| 2026-05-05 01:23 | 28.59778 | -81.76193 | 6850 ft | 279 kts | 173° |
| 2026-05-05 01:23 | 28.57874 | -81.75890 | 6444 ft | 267 kts | 173° |
| 2026-05-05 01:23 | 28.56136 | -81.75616 | 6389 ft | 245 kts | 173° |
| 2026-05-05 01:23 | 28.54489 | -81.75357 | 6096 ft | 236 kts | 173° |
| 2026-05-05 01:24 | 28.52866 | -81.75114 | 5714 ft | 231 kts | 173° |
| 2026-05-05 01:24 | 28.51279 | -81.74896 | 5325 ft | 228 kts | 173° |
| 2026-05-05 01:24 | 28.49704 | -81.74708 | 4907 ft | 226 kts | 173° |
| 2026-05-05 01:24 | 28.48139 | -81.74538 | 4555 ft | 221 kts | 173° |
| 2026-05-05 01:25 | 28.46632 | -81.74395 | 4082 ft | 219 kts | 173° |
| 2026-05-05 01:25 | 28.45123 | -81.74273 | 3544 ft | 218 kts | 173° |
| 2026-05-05 01:25 | 28.43622 | -81.74173 | 3099 ft | 213 kts | 172° |
| 2026-05-05 01:25 | 28.42240 | -81.73664 | 2954 ft | 208 kts | 140° |
| 2026-05-05 01:26 | 28.41486 | -81.72304 | 2953 ft | 205 kts | 101° |
| 2026-05-05 01:26 | 28.41634 | -81.70719 | 2964 ft | 207 kts | 75° |
| 2026-05-05 01:26 | 28.42082 | -81.69167 | 2965 ft | 207 kts | 73° |
| 2026-05-05 01:26 | 28.42550 | -81.67611 | 2969 ft | 207 kts | 73° |
| 2026-05-05 01:27 | 28.43017 | -81.66058 | 2970 ft | 208 kts | 73° |
| 2026-05-05 01:27 | 28.43483 | -81.64504 | 2968 ft | 208 kts | 73° |
| 2026-05-05 01:27 | 28.43953 | -81.62933 | 2969 ft | 208 kts | 73° |
| 2026-05-05 01:27 | 28.44421 | -81.61374 | 2970 ft | 208 kts | 73° |
| 2026-05-05 01:28 | 28.44883 | -81.59824 | 2973 ft | 208 kts | 73° |
| 2026-05-05 01:28 | 28.45349 | -81.58257 | 2975 ft | 208 kts | 73° |
| 2026-05-05 01:28 | 28.45797 | -81.56756 | 2972 ft | 207 kts | 73° |
| 2026-05-05 01:28 | 28.46253 | -81.55252 | 2974 ft | 193 kts | 72° |
| 2026-05-05 01:29 | 28.46704 | -81.53876 | 2988 ft | 181 kts | 71° |
| 2026-05-05 01:29 | 28.47173 | -81.52562 | 2973 ft | 178 kts | 69° |
| 2026-05-05 01:29 | 28.47659 | -81.51276 | 2972 ft | 176 kts | 69° |
| 2026-05-05 01:29 | 28.48153 | -81.49996 | 2970 ft | 177 kts | 68° |
| 2026-05-05 01:30 | 28.48645 | -81.48712 | 2873 ft | 178 kts | 69° |
| 2026-05-05 01:30 | 28.49133 | -81.47437 | 2638 ft | 178 kts | 69° |
| 2026-05-05 01:30 | 28.49616 | -81.46174 | 2324 ft | 170 kts | 69° |
| 2026-05-05 01:30 | 28.50085 | -81.44947 | 2119 ft | 165 kts | 69° |
| 2026-05-05 01:31 | 28.50518 | -81.43822 | 1923 ft | 145 kts | 70° |
| 2026-05-05 01:31 | 28.50888 | -81.42871 | 1776 ft | 119 kts | 70° |
| 2026-05-05 01:31 | 28.51220 | -81.42008 | 1605 ft | 118 kts | 70° |
| 2026-05-05 01:31 | 28.51535 | -81.41168 | 1432 ft | 115 kts | 70° |
| 2026-05-05 01:32 | 28.51850 | -81.40324 | 1294 ft | 116 kts | 70° |
| 2026-05-05 01:32 | 28.52167 | -81.39477 | 1144 ft | 117 kts | 70° |
| 2026-05-05 01:32 | 28.52493 | -81.38612 | 989 ft | 118 kts | 69° |
| 2026-05-05 01:32 | 28.52814 | -81.37758 | 833 ft | 118 kts | 68° |
| 2026-05-05 01:33 | 28.53149 | -81.36895 | 669 ft | 119 kts | 68° |
| 2026-05-05 01:33 | 28.53487 | -81.36037 | 523 ft | 119 kts | 68° |
| 2026-05-05 01:33 | 28.53817 | -81.35175 | 386 ft | 120 kts | 69° |
| 2026-05-05 01:33 | 28.54136 | -81.34304 | 420 ft | 121 kts | 67° |
| 2026-05-05 01:34 | 28.54514 | -81.33363 | 993 ft | 141 kts | 69° |
| 2026-05-05 01:34 | 28.54867 | -81.32388 | 1572 ft | 133 kts | 72° |
| 2026-05-05 01:34 | 28.55286 | -81.31442 | 1460 ft | 131 kts | 68° |
| 2026-05-05 01:34 | 28.55677 | -81.30556 | 1487 ft | 133 kts | 66° |
| 2026-05-05 01:35 | 28.56157 | -81.29477 | 1443 ft | 163 kts | 66° |
| 2026-05-05 01:35 | 28.56670 | -81.28315 | 1479 ft | 167 kts | 66° |
| 2026-05-05 01:35 | 28.57195 | -81.27119 | 1474 ft | 169 kts | 66° |
| 2026-05-05 01:35 | 28.57722 | -81.25929 | 1468 ft | 168 kts | 66° |
| 2026-05-05 01:36 | 28.58252 | -81.24727 | 1468 ft | 168 kts | 66° |
| 2026-05-05 01:36 | 28.58802 | -81.23473 | 1754 ft | 195 kts | 66° |
| 2026-05-05 01:36 | 28.59391 | -81.22124 | 2636 ft | 191 kts | 66° |
| 2026-05-05 01:36 | 28.59985 | -81.20812 | 2952 ft | 184 kts | 61° |
| 2026-05-05 01:37 | 28.60992 | -81.19923 | 2956 ft | 188 kts | 20° |
| 2026-05-05 01:37 | 28.62285 | -81.20076 | 2960 ft | 195 kts | 340° |
| 2026-05-05 01:37 | 28.63485 | -81.20828 | 2978 ft | 197 kts | 333° |
| 2026-05-05 01:37 | 28.64526 | -81.21530 | 2971 ft | 197 kts | 333° |
| 2026-05-05 01:38 | 28.65481 | -81.22647 | 2958 ft | 201 kts | 295° |
| 2026-05-05 01:38 | 28.65579 | -81.24187 | 2962 ft | 200 kts | 252° |
| 2026-05-05 01:38 | 28.65054 | -81.25660 | 2983 ft | 200 kts | 244° |
| 2026-05-05 01:38 | 28.64477 | -81.27102 | 2973 ft | 200 kts | 243° |
| 2026-05-05 01:39 | 28.63900 | -81.28541 | 2972 ft | 199 kts | 243° |
| 2026-05-05 01:39 | 28.63330 | -81.29971 | 2973 ft | 200 kts | 243° |
| 2026-05-05 01:39 | 28.62750 | -81.31420 | 2969 ft | 200 kts | 243° |
| 2026-05-05 01:39 | 28.62167 | -81.32864 | 2968 ft | 200 kts | 243° |
| 2026-05-05 01:40 | 28.61587 | -81.34297 | 2970 ft | 200 kts | 243° |
| 2026-05-05 01:40 | 28.61000 | -81.35748 | 2968 ft | 200 kts | 243° |
| 2026-05-05 01:40 | 28.60425 | -81.37180 | 2974 ft | 201 kts | 243° |
| 2026-05-05 01:40 | 28.59842 | -81.38632 | 2974 ft | 201 kts | 243° |
| 2026-05-05 01:41 | 28.59266 | -81.40072 | 2970 ft | 200 kts | 243° |
| 2026-05-05 01:41 | 28.58689 | -81.41513 | 2972 ft | 196 kts | 243° |
| 2026-05-05 01:41 | 28.58134 | -81.42909 | 2980 ft | 193 kts | 244° |
| 2026-05-05 01:41 | 28.57581 | -81.44302 | 2974 ft | 192 kts | 243° |
| 2026-05-05 01:42 | 28.57034 | -81.45686 | 2968 ft | 192 kts | 243° |
| 2026-05-05 01:42 | 28.56491 | -81.47062 | 2975 ft | 189 kts | 243° |
| 2026-05-05 01:42 | 28.55973 | -81.48383 | 2785 ft | 180 kts | 244° |
| 2026-05-05 01:42 | 28.55458 | -81.49693 | 2377 ft | 183 kts | 244° |
| 2026-05-05 01:43 | 28.54947 | -81.51002 | 2040 ft | 180 kts | 243° |
| 2026-05-05 01:43 | 28.54443 | -81.52302 | 1975 ft | 182 kts | 241° |
| 2026-05-05 01:43 | 28.53607 | -81.53297 | 1942 ft | 169 kts | 196° |
| 2026-05-05 01:43 | 28.52501 | -81.53301 | 1967 ft | 156 kts | 157° |
| 2026-05-05 01:44 | 28.51485 | -81.52896 | 1991 ft | 156 kts | 153° |
| 2026-05-05 01:44 | 28.50465 | -81.52438 | 1975 ft | 154 kts | 146° |
| 2026-05-05 01:44 | 28.49862 | -81.51537 | 1951 ft | 145 kts | 102° |
| 2026-05-05 01:44 | 28.49757 | -81.50400 | 1951 ft | 145 kts | 94° |
| 2026-05-05 01:45 | 28.49710 | -81.49246 | 1963 ft | 146 kts | 94° |
| 2026-05-05 01:45 | 28.49665 | -81.48104 | 1970 ft | 146 kts | 93° |
| 2026-05-05 01:45 | 28.49618 | -81.46956 | 1973 ft | 146 kts | 94° |
| 2026-05-05 01:45 | 28.49633 | -81.45798 | 1978 ft | 147 kts | 84° |
| 2026-05-05 01:46 | 28.49904 | -81.44670 | 1976 ft | 148 kts | 71° |
| 2026-05-05 01:46 | 28.50372 | -81.43616 | 1893 ft | 151 kts | 64° |
| 2026-05-05 01:46 | 28.50900 | -81.42591 | 1701 ft | 148 kts | 64° |
| 2026-05-05 01:46 | 28.51384 | -81.41571 | 1518 ft | 147 kts | 67° |
| 2026-05-05 01:47 | 28.51818 | -81.40519 | 1334 ft | 147 kts | 69° |
| 2026-05-05 01:47 | 28.52217 | -81.39446 | 1137 ft | 141 kts | 70° |
| 2026-05-05 01:47 | 28.52567 | -81.38478 | 941 ft | 127 kts | 70° |
| 2026-05-05 01:47 | 28.52902 | -81.37580 | 761 ft | 119 kts | 69° |
| 2026-05-05 01:48 | 28.53228 | -81.36716 | 672 ft | 121 kts | 69° |
| 2026-05-05 01:48 | 28.53564 | -81.35826 | 517 ft | 122 kts | 69° |
| 2026-05-05 01:48 | 28.53909 | -81.34927 | 335 ft | 124 kts | 68° |
| 2026-05-05 01:48 | 28.54243 | -81.34029 | 166 ft | 124 kts | 68° |
| 2026-05-05 01:49 | 28.54569 | -81.33182 | 111 ft | 104 kts | 68° |
| 2026-05-05 01:49 | 28.54771 | -81.32644 | 114 ft | 41 kts | 69° |
| 2026-05-05 01:49 | 28.54870 | -81.32383 | 112 ft | 36 kts | 67° |
| 2026-05-05 01:49 | 28.54944 | -81.32304 | 111 ft | 13 kts | 341° |
| 2026-05-05 01:50 | 28.55014 | -81.32339 | 111 ft | 9 kts | 329° |
| 2026-05-05 01:50 | 28.55017 | -81.32391 | 111 ft | 2 kts | 244° |
| 2026-05-05 01:50 | 28.55016 | -81.32396 | 111 ft | 2 kts | 245° |
| 2026-05-05 01:50 | 28.55008 | -81.32414 | 111 ft | 1 kts | 247° |
| 2026-05-05 01:51 | 28.54997 | -81.32443 | 111 ft | 6 kts | 246° |
| 2026-05-05 01:51 | 28.54994 | -81.32452 | 111 ft | 3 kts | 246° |
| 2026-05-05 01:51 | 28.54979 | -81.32491 | 111 ft | 7 kts | 245° |
| 2026-05-05 01:51 | 28.54953 | -81.32561 | 112 ft | 11 kts | 246° |
| 2026-05-05 01:52 | 28.54914 | -81.32661 | 112 ft | 16 kts | 246° |
| 2026-05-05 01:52 | 28.54863 | -81.32794 | 112 ft | 20 kts | 247° |
| 2026-05-05 01:52 | 28.54803 | -81.32954 | 112 ft | 24 kts | 247° |
| 2026-05-05 01:52 | 28.54735 | -81.33131 | 112 ft | 18 kts | 252° |
| 2026-05-05 01:53 | 28.54712 | -81.33296 | 111 ft | 23 kts | 265° |
| 2026-05-05 01:53 | 28.54694 | -81.33495 | 109 ft | 23 kts | 263° |
| 2026-05-05 01:53 | 28.54691 | -81.33615 | 109 ft | 10 kts | 304° |
| 2026-05-05 01:53 | 28.54745 | -81.33685 | 109 ft | 8 kts | 312° |
| 2026-05-05 01:54 | 28.54789 | -81.33690 | 109 ft | 8 kts | 4° |
| 2026-05-05 01:54 | 28.54810 | -81.33710 | 109 ft | 5 kts | 218° |
| 2026-05-05 01:54 | 28.54802 | -81.33718 | 109 ft | 0 kts | 219° |